createdAt,value
2016-07-16T00:00:14.498Z,97.52
2016-07-16T00:00:45.212Z,98.08
2016-07-16T00:01:15.233Z,97.99
2016-07-16T00:01:44.537Z,97.89
2016-07-16T00:02:15.269Z,97.99
2016-07-16T00:02:45.278Z,97.71
2016-07-16T00:03:15.288Z,97.61
2016-07-16T00:03:45.307Z,97.42
2016-07-16T00:04:15.318Z,97.8
2016-07-16T00:04:45.337Z,97.23
2016-07-16T00:05:15.348Z,96.94
2016-07-16T00:05:45.362Z,97.42
2016-07-16T00:06:14.663Z,97.23
2016-07-16T00:06:45.382Z,97.89
2016-07-16T00:07:15.402Z,97.89
2016-07-16T00:07:45.421Z,97.13
2016-07-16T00:08:14.714Z,97.61
2016-07-16T00:08:44.032Z,97.32
2016-07-16T00:09:15.455Z,97.32
2016-07-16T00:09:44.765Z,96.46
2016-07-16T00:10:15.488Z,96.61
2016-07-16T00:10:45.519Z,96.84
2016-07-16T00:11:15.530Z,95.98
2016-07-16T00:11:44.821Z,96.08
2016-07-16T00:12:15.548Z,96.13
2016-07-16T00:12:45.552Z,96.13
2016-07-16T00:13:15.566Z,96.17
2016-07-16T00:13:45.583Z,96.42
2016-07-16T00:14:15.603Z,96.32
2016-07-16T00:14:45.607Z,96.42
2016-07-16T00:15:15.635Z,96.22
2016-07-16T00:15:45.636Z,96.03
2016-07-16T00:16:15.655Z,95.84
2016-07-16T00:16:45.669Z,95.75
2016-07-16T00:17:15.679Z,95.56
2016-07-16T00:17:45.691Z,95.17
2016-07-16T00:18:14.293Z,95.27
2016-07-16T00:18:45.721Z,95.36
2016-07-16T00:19:15.739Z,94.79
2016-07-16T00:19:44.622Z,94.89
2016-07-16T00:20:15.759Z,94.7
2016-07-16T00:20:45.785Z,94.6
2016-07-16T00:21:15.985Z,94.89
2016-07-16T00:21:45.095Z,94.89
2016-07-16T00:22:15.830Z,94.98
2016-07-16T00:22:45.857Z,94.02
2016-07-16T00:23:15.850Z,94.31
2016-07-16T00:23:45.863Z,94.36
2016-07-16T00:24:15.168Z,94.51
2016-07-16T00:24:45.896Z,94.46
2016-07-16T00:25:15.900Z,94.36
2016-07-16T00:25:45.919Z,94.17
2016-07-16T00:26:14.517Z,94.46
2016-07-16T00:26:45.957Z,94.46
2016-07-16T00:27:15.966Z,93.98
2016-07-16T00:27:45.272Z,94.17
2016-07-16T00:28:15.989Z,93.79
2016-07-16T00:28:46.001Z,93.6
2016-07-16T00:29:16.032Z,93.69
2016-07-16T00:29:45.330Z,93.88
2016-07-16T00:30:16.052Z,93.69
2016-07-16T00:30:46.054Z,93.6
2016-07-16T00:31:16.071Z,93.6
2016-07-16T00:31:45.381Z,93.88
2016-07-16T00:32:16.121Z,93.4
2016-07-16T00:32:46.114Z,93.5
2016-07-16T00:33:16.133Z,94.36
2016-07-16T00:33:45.439Z,94.46
2016-07-16T00:34:15.443Z,94.36
2016-07-16T00:34:46.184Z,94.46
2016-07-16T00:35:16.189Z,94.93
2016-07-16T00:35:46.201Z,94.55
2016-07-16T00:36:16.222Z,95.22
2016-07-16T00:36:46.235Z,95.12
2016-07-16T00:37:16.239Z,94.74
2016-07-16T00:37:46.262Z,94.36
2016-07-16T00:38:16.270Z,94.07
2016-07-16T00:38:46.299Z,94.26
2016-07-16T00:39:16.299Z,94.26
2016-07-16T00:39:46.313Z,93.79
2016-07-16T00:40:16.330Z,93.6
2016-07-16T00:40:46.347Z,94.26
2016-07-16T00:41:16.361Z,93.69
2016-07-16T00:41:46.383Z,93.31
2016-07-16T00:42:16.387Z,93.6
2016-07-16T00:42:46.402Z,93.6
2016-07-16T00:43:16.417Z,93.02
2016-07-16T00:43:46.432Z,92.93
2016-07-16T00:44:16.446Z,92.35
2016-07-16T00:44:46.472Z,92.93
2016-07-16T00:45:16.467Z,93.31
2016-07-16T00:45:46.484Z,92.93
2016-07-16T00:46:16.499Z,92.64
2016-07-16T00:46:45.805Z,92.35
2016-07-16T00:47:16.538Z,92.35
2016-07-16T00:47:46.540Z,91.49
2016-07-16T00:48:16.556Z,91.2
2016-07-16T00:48:45.863Z,91.2
2016-07-16T00:49:16.581Z,91.49
2016-07-16T00:49:46.602Z,91.16
2016-07-16T00:50:16.622Z,91.25
2016-07-16T00:50:46.630Z,91.16
2016-07-16T00:51:16.649Z,90.77
2016-07-16T00:51:46.651Z,90.53
2016-07-16T00:52:15.250Z,91.16
2016-07-16T00:52:46.690Z,91.02
2016-07-16T00:53:16.702Z,91.06
2016-07-16T00:53:46.714Z,90.82
2016-07-16T00:54:16.017Z,90.67
2016-07-16T00:54:46.027Z,90.87
2016-07-16T00:55:16.053Z,90.67
2016-07-16T00:55:46.781Z,90.1
2016-07-16T00:56:16.781Z,90.2
2016-07-16T00:56:46.797Z,90.77
2016-07-16T00:57:16.826Z,90.1
2016-07-16T00:57:46.118Z,90.39
2016-07-16T00:58:16.131Z,90.39
2016-07-16T00:58:46.876Z,90.01
2016-07-16T00:59:16.163Z,90.2
2016-07-16T00:59:46.876Z,90.2
2016-07-16T01:00:16.902Z,89.81
2016-07-16T01:00:46.204Z,90.3
2016-07-16T01:01:16.922Z,90.39
2016-07-16T01:01:46.946Z,90.58
2016-07-16T01:02:16.962Z,90.3
2016-07-16T01:02:46.966Z,90.48
2016-07-16T01:03:16.274Z,90.58
2016-07-16T01:03:47.005Z,90.3
2016-07-16T01:04:17.010Z,90.1
2016-07-16T01:04:47.031Z,90.39
2016-07-16T01:05:16.336Z,90.01
2016-07-16T01:05:47.057Z,90.1
2016-07-16T01:06:16.363Z,89.91
2016-07-16T01:06:47.082Z,90.3
2016-07-16T01:07:17.102Z,90.3
2016-07-16T01:07:46.404Z,90.58
2016-07-16T01:08:17.126Z,90.2
2016-07-16T01:08:47.143Z,90.1
2016-07-16T01:09:17.164Z,90.3
2016-07-16T01:09:47.168Z,90.39
2016-07-16T01:10:17.184Z,90.1
2016-07-16T01:10:46.496Z,90.3
2016-07-16T01:11:16.498Z,90.2
2016-07-16T01:11:47.242Z,90.01
2016-07-16T01:12:17.244Z,90.1
2016-07-16T01:12:46.547Z,89.81
2016-07-16T01:13:17.268Z,89.81
2016-07-16T01:13:47.288Z,89.72
2016-07-16T01:14:17.295Z,90.2
2016-07-16T01:14:47.304Z,90.01
2016-07-16T01:15:17.331Z,89.62
2016-07-16T01:15:47.345Z,89.72
2016-07-16T01:16:16.642Z,89.62
2016-07-16T01:16:47.366Z,89.53
2016-07-16T01:17:17.382Z,89.53
2016-07-16T01:17:47.395Z,89.91
2016-07-16T01:18:17.404Z,89.81
2016-07-16T01:18:47.427Z,89.91
2016-07-16T01:19:17.442Z,89.72
2016-07-16T01:19:46.735Z,89.72
2016-07-16T01:20:17.466Z,89.24
2016-07-16T01:20:46.768Z,89.05
2016-07-16T01:21:17.512Z,89.05
2016-07-16T01:21:47.508Z,88.86
2016-07-16T01:22:17.522Z,89.15
2016-07-16T01:22:47.544Z,89.05
2016-07-16T01:23:16.843Z,89.34
2016-07-16T01:23:47.564Z,89.53
2016-07-16T01:24:17.582Z,88.95
2016-07-16T01:24:47.594Z,89.34
2016-07-16T01:25:17.617Z,89.34
2016-07-16T01:25:47.623Z,88.95
2016-07-16T01:26:17.638Z,89.24
2016-07-16T01:26:47.653Z,89.15
2016-07-16T01:27:17.674Z,89.24
2016-07-16T01:27:47.680Z,89.43
2016-07-16T01:28:17.692Z,89.43
2016-07-16T01:28:47.712Z,89.24
2016-07-16T01:29:17.739Z,89.15
2016-07-16T01:29:47.736Z,89.24
2016-07-16T01:30:17.758Z,89.24
2016-07-16T01:30:47.764Z,89.53
2016-07-16T01:31:17.777Z,89.34
2016-07-16T01:31:47.095Z,89.34
2016-07-16T01:32:17.807Z,89.34
2016-07-16T01:32:47.834Z,89.34
2016-07-16T01:33:17.834Z,89.43
2016-07-16T01:33:47.848Z,89.43
2016-07-16T01:34:17.158Z,89.43
2016-07-16T01:34:47.167Z,89.34
2016-07-16T01:35:17.894Z,89.43
2016-07-16T01:35:47.197Z,89.15
2016-07-16T01:36:17.924Z,89.34
2016-07-16T01:36:47.229Z,89.34
2016-07-16T01:37:17.241Z,88.95
2016-07-16T01:37:47.974Z,89.24
2016-07-16T01:38:17.985Z,89.15
2016-07-16T01:38:47.997Z,89.53
2016-07-16T01:39:18.013Z,89.43
2016-07-16T01:39:46.606Z,89.05
2016-07-16T01:40:18.040Z,89.24
2016-07-16T01:40:48.048Z,89.43
2016-07-16T01:41:18.072Z,89.43
2016-07-16T01:41:48.076Z,89.53
2016-07-16T01:42:18.103Z,89.34
2016-07-16T01:42:48.104Z,89.24
2016-07-16T01:43:18.128Z,89.15
2016-07-16T01:43:48.135Z,89.15
2016-07-16T01:44:18.151Z,88.95
2016-07-16T01:44:48.163Z,89.15
2016-07-16T01:45:18.176Z,89.05
2016-07-16T01:45:48.190Z,89.24
2016-07-16T01:46:18.204Z,89.15
2016-07-16T01:46:48.222Z,89.24
2016-07-16T01:47:18.235Z,89.24
2016-07-16T01:47:48.257Z,89.53
2016-07-16T01:48:18.266Z,89.43
2016-07-16T01:48:48.276Z,89.24
2016-07-16T01:49:18.289Z,89.24
2016-07-16T01:49:47.593Z,89.24
2016-07-16T01:50:18.327Z,89.24
2016-07-16T01:50:48.327Z,89.05
2016-07-16T01:51:18.345Z,89.15
2016-07-16T01:51:48.375Z,89.43
2016-07-16T01:52:18.374Z,89.24
2016-07-16T01:52:48.395Z,89.34
2016-07-16T01:53:18.406Z,88.95
2016-07-16T01:53:48.421Z,89.34
2016-07-16T01:54:18.436Z,89.24
2016-07-16T01:54:48.443Z,89.05
2016-07-16T01:55:18.458Z,89.24
2016-07-16T01:55:48.481Z,89.34
2016-07-16T01:56:18.488Z,89.34
2016-07-16T01:56:48.505Z,89.24
2016-07-16T01:57:17.808Z,89.34
2016-07-16T01:57:47.825Z,89.43
2016-07-16T01:58:17.837Z,89.34
2016-07-16T01:58:47.860Z,89.05
2016-07-16T01:59:18.581Z,89.34
2016-07-16T01:59:48.585Z,89.43
2016-07-16T02:00:18.604Z,89.34
2016-07-16T02:00:48.617Z,89.24
2016-07-16T02:01:17.918Z,89.15
2016-07-16T02:01:48.649Z,88.95
2016-07-16T02:02:17.950Z,89.34
2016-07-16T02:02:48.676Z,89.53
2016-07-16T02:03:17.985Z,89.53
2016-07-16T02:03:48.706Z,89.34
2016-07-16T02:04:18.725Z,89.24
2016-07-16T02:04:48.027Z,89.15
2016-07-16T02:05:18.751Z,89.05
2016-07-16T02:05:48.049Z,88.95
2016-07-16T02:06:18.776Z,89.43
2016-07-16T02:06:47.368Z,89.09
2016-07-16T02:07:18.095Z,89.24
2016-07-16T02:07:48.825Z,89.43
2016-07-16T02:08:18.826Z,89.05
2016-07-16T02:08:48.138Z,89.24
2016-07-16T02:09:18.855Z,89.34
2016-07-16T02:09:48.877Z,89.24
2016-07-16T02:10:18.885Z,89.24
2016-07-16T02:10:48.210Z,89.05
2016-07-16T02:11:18.924Z,89.24
2016-07-16T02:11:48.927Z,89.05
2016-07-16T02:12:18.237Z,89.15
2016-07-16T02:12:48.960Z,89.24
2016-07-16T02:13:18.976Z,89.43
2016-07-16T02:13:48.986Z,88.86
2016-07-16T02:14:19.019Z,89.05
2016-07-16T02:14:49.025Z,88.86
2016-07-16T02:15:19.036Z,88.95
2016-07-16T02:15:49.061Z,89.43
2016-07-16T02:16:19.060Z,89.34
2016-07-16T02:16:48.387Z,89.34
2016-07-16T02:17:18.381Z,88.67
2016-07-16T02:17:48.391Z,88.57
2016-07-16T02:18:19.122Z,88.57
2016-07-16T02:18:49.127Z,88.76
2016-07-16T02:19:19.141Z,89.15
2016-07-16T02:19:49.159Z,89.05
2016-07-16T02:20:19.174Z,88.52
2016-07-16T02:20:48.476Z,88.62
2016-07-16T02:21:19.211Z,89.09
2016-07-16T02:21:49.217Z,89.09
2016-07-16T02:22:19.238Z,89.38
2016-07-16T02:22:49.239Z,89.24
2016-07-16T02:23:18.554Z,89.38
2016-07-16T02:23:49.276Z,88.9
2016-07-16T02:24:19.290Z,89.09
2016-07-16T02:24:49.320Z,88.76
2016-07-16T02:25:19.320Z,88.81
2016-07-16T02:25:49.337Z,89.19
2016-07-16T02:26:19.351Z,88.71
2016-07-16T02:26:49.366Z,89.34
2016-07-16T02:27:19.377Z,89.38
2016-07-16T02:27:49.387Z,88.86
2016-07-16T02:28:19.410Z,89.19
2016-07-16T02:28:48.702Z,88.43
2016-07-16T02:29:19.437Z,88.48
2016-07-16T02:29:49.447Z,88.52
2016-07-16T02:30:18.747Z,88.71
2016-07-16T02:30:49.467Z,88.71
2016-07-16T02:31:19.495Z,88.71
2016-07-16T02:31:48.792Z,88.71
2016-07-16T02:32:19.512Z,88.81
2016-07-16T02:32:49.534Z,88.67
2016-07-16T02:33:19.548Z,88.33
2016-07-16T02:33:49.558Z,88.71
2016-07-16T02:34:19.577Z,88.52
2016-07-16T02:34:49.593Z,88.71
2016-07-16T02:35:19.609Z,89
2016-07-16T02:35:49.632Z,89
2016-07-16T02:36:18.214Z,88.23
2016-07-16T02:36:48.940Z,88.71
2016-07-16T02:37:19.661Z,88.9
2016-07-16T02:37:49.673Z,88.52
2016-07-16T02:38:18.977Z,89.09
2016-07-16T02:38:49.708Z,89
2016-07-16T02:39:19.731Z,89.48
2016-07-16T02:39:49.727Z,88.9
2016-07-16T02:40:19.750Z,89.19
2016-07-16T02:40:49.758Z,89.29
2016-07-16T02:41:19.070Z,89.29
2016-07-16T02:41:49.078Z,89.48
2016-07-16T02:42:19.093Z,89.09
2016-07-16T02:42:49.817Z,89.29
2016-07-16T02:43:19.833Z,89.19
2016-07-16T02:43:49.142Z,89.48
2016-07-16T02:44:19.869Z,89.09
2016-07-16T02:44:49.877Z,89.29
2016-07-16T02:45:19.889Z,89.29
2016-07-16T02:45:49.908Z,89.29
2016-07-16T02:46:19.916Z,89.29
2016-07-16T02:46:49.928Z,88.71
2016-07-16T02:47:19.947Z,88.71
2016-07-16T02:47:49.955Z,88.43
2016-07-16T02:48:19.969Z,88.62
2016-07-16T02:48:49.994Z,88.71
2016-07-16T02:49:20.007Z,88.52
2016-07-16T02:49:50.017Z,89.48
2016-07-16T02:50:20.044Z,89.38
2016-07-16T02:50:50.046Z,89.48
2016-07-16T02:51:19.346Z,89.09
2016-07-16T02:51:50.081Z,88.71
2016-07-16T02:52:20.099Z,88.81
2016-07-16T02:52:50.110Z,88.43
2016-07-16T02:53:20.113Z,88.43
2016-07-16T02:53:50.127Z,88.62
2016-07-16T02:54:20.150Z,89
2016-07-16T02:54:50.158Z,89
2016-07-16T02:55:20.179Z,88.81
2016-07-16T02:55:50.192Z,89.09
2016-07-16T02:56:20.208Z,89.29
2016-07-16T02:56:50.224Z,89.29
2016-07-16T02:57:20.239Z,88.9
2016-07-16T02:57:49.540Z,88.9
2016-07-16T02:58:20.263Z,89.19
2016-07-16T02:58:50.280Z,88.9
2016-07-16T02:59:20.294Z,88.81
2016-07-16T02:59:50.309Z,89.38
2016-07-16T03:00:19.623Z,89.09
2016-07-16T03:00:50.333Z,89
2016-07-16T03:01:20.352Z,88.81
2016-07-16T03:01:50.364Z,88.71
2016-07-16T03:02:20.381Z,88.9
2016-07-16T03:02:49.680Z,88.9
2016-07-16T03:03:20.399Z,88.9
2016-07-16T03:03:50.418Z,88.43
2016-07-16T03:04:19.736Z,89
2016-07-16T03:04:50.443Z,88.62
2016-07-16T03:05:20.468Z,88.52
2016-07-16T03:05:50.478Z,88.71
2016-07-16T03:06:20.492Z,88.33
2016-07-16T03:06:50.498Z,89
2016-07-16T03:07:20.523Z,88.71
2016-07-16T03:07:49.823Z,88.71
2016-07-16T03:08:20.549Z,88.23
2016-07-16T03:08:49.854Z,88.71
2016-07-16T03:09:20.590Z,88.71
2016-07-16T03:09:50.588Z,89.48
2016-07-16T03:10:20.603Z,88.9
2016-07-16T03:10:50.618Z,88.71
2016-07-16T03:11:20.640Z,88.62
2016-07-16T03:11:50.646Z,89
2016-07-16T03:12:19.968Z,88.71
2016-07-16T03:12:50.676Z,88.62
2016-07-16T03:13:19.979Z,88.23
2016-07-16T03:13:50.699Z,88.71
2016-07-16T03:14:20.720Z,88.66
2016-07-16T03:14:50.738Z,88.71
2016-07-16T03:15:20.742Z,88.9
2016-07-16T03:15:50.761Z,89
2016-07-16T03:16:20.779Z,88.43
2016-07-16T03:16:50.790Z,87.95
2016-07-16T03:17:20.099Z,87.76
2016-07-16T03:17:50.115Z,88.13
2016-07-16T03:18:20.829Z,87.9
2016-07-16T03:18:50.850Z,87.99
2016-07-16T03:19:20.154Z,87.99
2016-07-16T03:19:50.174Z,87.9
2016-07-16T03:20:20.889Z,87.99
2016-07-16T03:20:50.205Z,87.8
2016-07-16T03:21:20.917Z,88.28
2016-07-16T03:21:50.930Z,87.99
2016-07-16T03:22:20.951Z,87.99
2016-07-16T03:22:50.973Z,88.09
2016-07-16T03:23:20.975Z,87.99
2016-07-16T03:23:50.993Z,88.18
2016-07-16T03:24:21.012Z,88.18
2016-07-16T03:24:51.020Z,87.99
2016-07-16T03:25:21.035Z,87.99
2016-07-16T03:25:51.053Z,87.99
2016-07-16T03:26:20.350Z,88.09
2016-07-16T03:26:51.078Z,88.09
2016-07-16T03:27:21.111Z,88.09
2016-07-16T03:27:51.101Z,87.51
2016-07-16T03:28:21.125Z,87.23
2016-07-16T03:28:51.140Z,87.9
2016-07-16T03:29:21.152Z,87.51
2016-07-16T03:29:51.170Z,87.23
2016-07-16T03:30:21.181Z,87.32
2016-07-16T03:30:51.196Z,87.51
2016-07-16T03:31:21.210Z,87.7
2016-07-16T03:31:51.230Z,87.41
2016-07-16T03:32:21.240Z,87.03
2016-07-16T03:32:51.255Z,87.61
2016-07-16T03:33:20.555Z,87.03
2016-07-16T03:33:50.581Z,87.03
2016-07-16T03:34:21.290Z,86.74
2016-07-16T03:34:51.313Z,87.03
2016-07-16T03:35:21.329Z,86.84
2016-07-16T03:35:51.333Z,87.23
2016-07-16T03:36:21.354Z,87.23
2016-07-16T03:36:50.660Z,87.32
2016-07-16T03:37:21.387Z,87.32
2016-07-16T03:37:51.393Z,87.41
2016-07-16T03:38:21.411Z,87.41
2016-07-16T03:38:51.431Z,87.03
2016-07-16T03:39:21.439Z,87.23
2016-07-16T03:39:50.748Z,87.23
2016-07-16T03:40:21.471Z,87.8
2016-07-16T03:40:51.483Z,87.9
2016-07-16T03:41:20.791Z,87.99
2016-07-16T03:41:51.516Z,87.9
2016-07-16T03:42:21.530Z,88.18
2016-07-16T03:42:51.543Z,88.18
2016-07-16T03:43:21.571Z,88.09
2016-07-16T03:43:51.573Z,87.99
2016-07-16T03:44:21.579Z,88.09
2016-07-16T03:44:50.896Z,88.66
2016-07-16T03:45:21.610Z,88.28
2016-07-16T03:45:51.631Z,87.99
2016-07-16T03:46:21.638Z,87.8
2016-07-16T03:46:51.651Z,88.28
2016-07-16T03:47:21.676Z,88.47
2016-07-16T03:47:51.684Z,88.28
2016-07-16T03:48:20.991Z,88.28
2016-07-16T03:48:51.715Z,88.37
2016-07-16T03:49:21.022Z,88.66
2016-07-16T03:49:51.023Z,88.18
2016-07-16T03:50:21.041Z,88.66
2016-07-16T03:50:51.772Z,88.47
2016-07-16T03:51:21.785Z,88.56
2016-07-16T03:51:51.802Z,88.56
2016-07-16T03:52:21.110Z,88.85
2016-07-16T03:52:51.822Z,89.04
2016-07-16T03:53:21.860Z,88.76
2016-07-16T03:53:51.853Z,88.66
2016-07-16T03:54:21.871Z,88.56
2016-07-16T03:54:51.886Z,89.14
2016-07-16T03:55:21.904Z,88.28
2016-07-16T03:55:51.931Z,88.66
2016-07-16T03:56:21.921Z,88.56
2016-07-16T03:56:51.951Z,88.95
2016-07-16T03:57:21.956Z,88.76
2016-07-16T03:57:51.975Z,88.76
2016-07-16T03:58:21.991Z,88.95
2016-07-16T03:58:52.005Z,88.66
2016-07-16T03:59:22.011Z,88.56
2016-07-16T03:59:52.036Z,88.95
2016-07-16T04:00:22.041Z,88.47
2016-07-16T04:00:52.058Z,88.56
2016-07-16T04:01:22.073Z,88.37
2016-07-16T04:01:51.381Z,88.37
2016-07-16T04:02:22.101Z,88.09
2016-07-16T04:02:52.119Z,87.9
2016-07-16T04:03:22.133Z,87.7
2016-07-16T04:03:52.161Z,87.99
2016-07-16T04:04:22.155Z,88.09
2016-07-16T04:04:52.182Z,87.7
2016-07-16T04:05:21.488Z,88.09
2016-07-16T04:05:51.496Z,88.09
2016-07-16T04:06:21.507Z,88.18
2016-07-16T04:06:52.237Z,87.32
2016-07-16T04:07:22.247Z,87.37
2016-07-16T04:07:52.259Z,87.13
2016-07-16T04:08:22.288Z,87.46
2016-07-16T04:08:52.295Z,87.17
2016-07-16T04:09:22.303Z,86.69
2016-07-16T04:09:52.316Z,87.65
2016-07-16T04:10:21.619Z,87.37
2016-07-16T04:10:52.349Z,87.08
2016-07-16T04:11:22.361Z,87.27
2016-07-16T04:11:51.662Z,87.08
2016-07-16T04:12:22.397Z,87.65
2016-07-16T04:12:52.413Z,87.55
2016-07-16T04:13:22.419Z,87.51
2016-07-16T04:13:51.722Z,87.27
2016-07-16T04:14:22.447Z,87.08
2016-07-16T04:14:52.456Z,86.98
2016-07-16T04:15:22.475Z,87.08
2016-07-16T04:15:52.490Z,86.98
2016-07-16T04:16:22.502Z,86.98
2016-07-16T04:16:52.527Z,87.27
2016-07-16T04:17:22.537Z,86.88
2016-07-16T04:17:52.555Z,87.08
2016-07-16T04:18:22.562Z,86.69
2016-07-16T04:18:52.594Z,86.6
2016-07-16T04:19:22.595Z,86.69
2016-07-16T04:19:52.606Z,86.6
2016-07-16T04:20:22.622Z,86.79
2016-07-16T04:20:52.633Z,87.17
2016-07-16T04:21:22.652Z,86.79
2016-07-16T04:21:52.671Z,87.08
2016-07-16T04:22:22.683Z,86.69
2016-07-16T04:22:52.691Z,87.55
2016-07-16T04:23:22.702Z,87.46
2016-07-16T04:23:52.725Z,87.46
2016-07-16T04:24:22.024Z,87.55
2016-07-16T04:24:52.755Z,87.55
2016-07-16T04:25:22.762Z,87.08
2016-07-16T04:25:52.072Z,87.27
2016-07-16T04:26:22.084Z,87.55
2016-07-16T04:26:52.804Z,86.79
2016-07-16T04:27:22.823Z,86.88
2016-07-16T04:27:52.844Z,87.17
2016-07-16T04:28:22.851Z,86.5
2016-07-16T04:28:52.864Z,86.69
2016-07-16T04:29:22.884Z,86.69
2016-07-16T04:29:52.897Z,86.88
2016-07-16T04:30:22.911Z,86.5
2016-07-16T04:30:52.924Z,86.12
2016-07-16T04:31:22.231Z,86.31
2016-07-16T04:31:52.958Z,86.79
2016-07-16T04:32:22.968Z,86.12
2016-07-16T04:32:52.982Z,86.69
2016-07-16T04:33:23.004Z,86.69
2016-07-16T04:33:52.308Z,86.6
2016-07-16T04:34:23.018Z,86.79
2016-07-16T04:34:52.346Z,86.31
2016-07-16T04:35:23.063Z,86.31
2016-07-16T04:35:52.365Z,86.21
2016-07-16T04:36:23.092Z,86.6
2016-07-16T04:36:52.390Z,87.27
2016-07-16T04:37:23.117Z,87.08
2016-07-16T04:37:53.122Z,86.69
2016-07-16T04:38:23.145Z,86.6
2016-07-16T04:38:53.151Z,87.17
2016-07-16T04:39:23.166Z,87.08
2016-07-16T04:39:53.193Z,87.08
2016-07-16T04:40:22.495Z,87.17
2016-07-16T04:40:53.212Z,87.08
2016-07-16T04:41:22.523Z,86.69
2016-07-16T04:41:53.240Z,86.6
2016-07-16T04:42:22.551Z,87.27
2016-07-16T04:42:53.273Z,87.17
2016-07-16T04:43:22.593Z,86.88
2016-07-16T04:43:52.598Z,87.27
2016-07-16T04:44:23.316Z,86.88
2016-07-16T04:44:53.329Z,87.08
2016-07-16T04:45:23.347Z,87.08
2016-07-16T04:45:53.357Z,86.79
2016-07-16T04:46:23.375Z,86.98
2016-07-16T04:46:53.388Z,86.88
2016-07-16T04:47:23.413Z,87.08
2016-07-16T04:47:53.419Z,86.88
2016-07-16T04:48:22.719Z,86.98
2016-07-16T04:48:52.747Z,87.17
2016-07-16T04:49:23.484Z,86.21
2016-07-16T04:49:53.474Z,86.5
2016-07-16T04:50:23.500Z,87.08
2016-07-16T04:50:53.514Z,86.98
2016-07-16T04:51:23.524Z,86.98
2016-07-16T04:51:53.545Z,86.79
2016-07-16T04:52:23.555Z,86.88
2016-07-16T04:52:53.563Z,86.69
2016-07-16T04:53:22.873Z,87.08
2016-07-16T04:53:52.884Z,87.17
2016-07-16T04:54:23.608Z,87.17
2016-07-16T04:54:53.627Z,87.46
2016-07-16T04:55:23.638Z,86.79
2016-07-16T04:55:53.660Z,86.88
2016-07-16T04:56:23.682Z,86.98
2016-07-16T04:56:53.687Z,86.79
2016-07-16T04:57:23.695Z,87.08
2016-07-16T04:57:53.708Z,86.6
2016-07-16T04:58:23.732Z,86.21
2016-07-16T04:58:53.740Z,86.79
2016-07-16T04:59:23.048Z,86.64
2016-07-16T04:59:53.769Z,87.12
2016-07-16T05:00:23.786Z,86.74
2016-07-16T05:00:53.795Z,86.45
2016-07-16T05:01:22.396Z,86.54
2016-07-16T05:01:53.118Z,86.54
2016-07-16T05:02:23.846Z,86.54
2016-07-16T05:02:53.857Z,86.64
2016-07-16T05:03:23.868Z,86.64
2016-07-16T05:03:53.185Z,86.45
2016-07-16T05:04:23.893Z,86.74
2016-07-16T05:04:53.909Z,86.83
2016-07-16T05:05:23.928Z,87.12
2016-07-16T05:05:53.948Z,86.25
2016-07-16T05:06:23.961Z,86.74
2016-07-16T05:06:53.980Z,86.35
2016-07-16T05:07:23.996Z,86.54
2016-07-16T05:07:54.006Z,87.02
2016-07-16T05:08:23.307Z,86.07
2016-07-16T05:08:54.035Z,86.16
2016-07-16T05:09:23.332Z,85.78
2016-07-16T05:09:54.059Z,85.92
2016-07-16T05:10:24.082Z,87.02
2016-07-16T05:10:54.088Z,86.01
2016-07-16T05:11:24.103Z,86.21
2016-07-16T05:11:54.125Z,86.3
2016-07-16T05:12:24.138Z,86.21
2016-07-16T05:12:53.435Z,86.21
2016-07-16T05:13:23.457Z,85.92
2016-07-16T05:13:53.478Z,86.01
2016-07-16T05:14:24.197Z,86.21
2016-07-16T05:14:54.206Z,85.72
2016-07-16T05:15:23.511Z,85.15
2016-07-16T05:15:54.240Z,84.67
2016-07-16T05:16:24.256Z,84.04
2016-07-16T05:16:54.268Z,84.52
2016-07-16T05:17:24.281Z,84.14
2016-07-16T05:17:54.291Z,84.42
2016-07-16T05:18:24.311Z,84.14
2016-07-16T05:18:54.327Z,84.42
2016-07-16T05:19:24.339Z,84.52
2016-07-16T05:19:54.354Z,83.94
2016-07-16T05:20:24.374Z,83.27
2016-07-16T05:20:54.380Z,83.18
2016-07-16T05:21:24.395Z,83.56
2016-07-16T05:21:54.417Z,83.56
2016-07-16T05:22:24.442Z,83.37
2016-07-16T05:22:54.446Z,83.18
2016-07-16T05:23:24.462Z,83.56
2016-07-16T05:23:54.469Z,83.27
2016-07-16T05:24:24.493Z,82.79
2016-07-16T05:24:54.503Z,82.41
2016-07-16T05:25:23.812Z,81.84
2016-07-16T05:25:54.531Z,82.31
2016-07-16T05:26:24.557Z,82.54
2016-07-16T05:26:54.561Z,82.45
2016-07-16T05:27:23.863Z,82.16
2016-07-16T05:27:54.593Z,82.35
2016-07-16T05:28:23.910Z,82.54
2016-07-16T05:28:54.617Z,82.26
2016-07-16T05:29:24.642Z,82.16
2016-07-16T05:29:54.656Z,81.78
2016-07-16T05:30:24.668Z,81.87
2016-07-16T05:30:54.681Z,81.49
2016-07-16T05:31:24.006Z,81.78
2016-07-16T05:31:53.998Z,81.87
2016-07-16T05:32:24.017Z,81.78
2016-07-16T05:32:54.027Z,81.68
2016-07-16T05:33:24.758Z,81.1
2016-07-16T05:33:54.058Z,81.01
2016-07-16T05:34:24.789Z,81.78
2016-07-16T05:34:54.795Z,81.3
2016-07-16T05:35:24.818Z,81.1
2016-07-16T05:35:54.831Z,81.3
2016-07-16T05:36:24.849Z,80.91
2016-07-16T05:36:54.856Z,80.82
2016-07-16T05:37:24.161Z,80.63
2016-07-16T05:37:54.180Z,80.43
2016-07-16T05:38:24.910Z,81.3
2016-07-16T05:38:54.919Z,81.01
2016-07-16T05:39:24.937Z,80.82
2016-07-16T05:39:54.945Z,80.82
2016-07-16T05:40:24.968Z,80.63
2016-07-16T05:40:54.980Z,81.1
2016-07-16T05:41:25.000Z,81.2
2016-07-16T05:41:55.002Z,80.82
2016-07-16T05:42:25.027Z,80.91
2016-07-16T05:42:55.037Z,81.01
2016-07-16T05:43:25.056Z,81.4
2016-07-16T05:43:55.066Z,81.01
2016-07-16T05:44:25.088Z,81.49
2016-07-16T05:44:55.097Z,81.4
2016-07-16T05:45:24.399Z,81.68
2016-07-16T05:45:55.124Z,81.49
2016-07-16T05:46:25.137Z,81.3
2016-07-16T05:46:55.165Z,81.3
2016-07-16T05:47:25.178Z,81.78
2016-07-16T05:47:55.187Z,81.3
2016-07-16T05:48:25.202Z,81.87
2016-07-16T05:48:54.519Z,81.78
2016-07-16T05:49:25.228Z,81.78
2016-07-16T05:49:55.247Z,81.87
2016-07-16T05:50:25.267Z,82.07
2016-07-16T05:50:54.568Z,81.59
2016-07-16T05:51:25.282Z,82.16
2016-07-16T05:51:55.308Z,81.68
2016-07-16T05:52:24.613Z,81.49
2016-07-16T05:52:55.334Z,81.2
2016-07-16T05:53:24.641Z,81.78
2016-07-16T05:53:55.371Z,81.68
2016-07-16T05:54:25.379Z,81.68
2016-07-16T05:54:55.402Z,81.68
2016-07-16T05:55:25.408Z,81.59
2016-07-16T05:55:54.717Z,81.87
2016-07-16T05:56:25.448Z,81.87
2016-07-16T05:56:55.455Z,81.78
2016-07-16T05:57:25.477Z,81.1
2016-07-16T05:57:54.777Z,81.68
2016-07-16T05:58:25.499Z,81.97
2016-07-16T05:58:55.520Z,82.35
2016-07-16T05:59:25.530Z,81.97
2016-07-16T05:59:55.548Z,81.68
2016-07-16T06:00:24.854Z,81.78
2016-07-16T06:00:54.150Z,82.16
2016-07-16T06:01:24.878Z,82.16
2016-07-16T06:01:54.893Z,81.49
2016-07-16T06:02:25.612Z,81.78
2016-07-16T06:02:54.210Z,81.3
2016-07-16T06:03:25.661Z,81.87
2016-07-16T06:03:55.657Z,81.49
2016-07-16T06:04:25.682Z,81.4
2016-07-16T06:04:55.694Z,81.49
2016-07-16T06:05:25.700Z,81.3
2016-07-16T06:05:55.728Z,81.3
2016-07-16T06:06:25.742Z,81.59
2016-07-16T06:06:55.756Z,81.68
2016-07-16T06:07:25.765Z,81.68
2016-07-16T06:07:55.792Z,81.4
2016-07-16T06:08:25.797Z,81.97
2016-07-16T06:08:55.807Z,81.3
2016-07-16T06:09:25.830Z,81.3
2016-07-16T06:09:55.842Z,81.49
2016-07-16T06:10:25.148Z,81.4
2016-07-16T06:10:55.868Z,81.4
2016-07-16T06:11:25.885Z,81.49
2016-07-16T06:11:55.899Z,81.2
2016-07-16T06:12:25.911Z,81.4
2016-07-16T06:12:55.932Z,81.2
2016-07-16T06:13:25.958Z,80.66
2016-07-16T06:13:55.251Z,80.73
2016-07-16T06:14:25.982Z,80.73
2016-07-16T06:14:55.987Z,80.76
2016-07-16T06:15:25.998Z,80.38
2016-07-16T06:15:56.039Z,80.57
2016-07-16T06:16:25.322Z,80.38
2016-07-16T06:16:56.050Z,80.38
2016-07-16T06:17:26.067Z,79.99
2016-07-16T06:17:56.078Z,79.99
2016-07-16T06:18:26.108Z,80.57
2016-07-16T06:18:56.124Z,80.22
2016-07-16T06:19:26.124Z,79.99
2016-07-16T06:19:56.138Z,79.71
2016-07-16T06:20:26.153Z,79.65
2016-07-16T06:20:56.175Z,79.55
2016-07-16T06:21:26.184Z,79.65
2016-07-16T06:21:56.197Z,78.59
2016-07-16T06:22:26.217Z,78.59
2016-07-16T06:22:56.248Z,78.59
2016-07-16T06:23:26.242Z,78.02
2016-07-16T06:23:56.261Z,78.02
2016-07-16T06:24:25.567Z,77.92
2016-07-16T06:24:56.300Z,78.21
2016-07-16T06:25:26.297Z,77.76
2016-07-16T06:25:55.615Z,78.25
2016-07-16T06:26:26.340Z,78.25
2016-07-16T06:26:56.349Z,78.15
2016-07-16T06:27:26.362Z,78.44
2016-07-16T06:27:56.386Z,77.67
2016-07-16T06:28:26.394Z,77.67